Bobadal, Argentina
Current Conditions -  °F | °C
As of 11:00 AM on Saturday 01 Nov 2014 (Local Time) from SANT Reporting Station
Overcast Overcast  
Wind Chill: 64°   Ceiling: 500
Heat Index: 64°   Visibility: 5mi
Dew Point: 61°   Wind: 7mph
Humidity: 88%   Direction: 140°SE
Pressure: 30.09"   Gusts: NA
Location:  26.65°S, 64.52°W
Report Text: SANT 011400Z 14006KT 8000 BKN005 OVC03518/16 Q1019
Loading
Personal Weather Stations






























Interactive Weather Map
Tropical Storm Tracking
New forecast layout! Learn more

10-Day Weather Forecast

Advertisements
Track Severe Weather on mobile